createdAt,value
2022-09-10T00:02:26.569Z,15.44
2022-09-10T00:04:54.897Z,15.44
2022-09-10T00:07:23.154Z,15.52
2022-09-10T00:09:51.697Z,15.41
2022-09-10T00:12:19.921Z,15.40
2022-09-10T00:14:48.151Z,15.42
2022-09-10T00:17:17.785Z,15.43
2022-09-10T00:19:48.608Z,15.48
2022-09-10T00:22:16.999Z,15.48
2022-09-10T00:24:45.485Z,15.51
2022-09-10T00:27:13.738Z,15.43
2022-09-10T00:29:42.069Z,15.43
2022-09-10T00:32:10.254Z,15.51
2022-09-10T00:34:40.084Z,15.48
2022-09-10T00:37:08.387Z,15.53
2022-09-10T00:39:36.733Z,15.57
2022-09-10T00:42:05.417Z,15.49
2022-09-10T00:44:58.703Z,15.54
2022-09-10T00:47:29.407Z,15.50
2022-09-10T00:50:03.687Z,15.40
2022-09-10T00:52:33.642Z,15.63
2022-09-10T00:55:04.182Z,15.48
2022-09-10T00:57:32.536Z,15.30
2022-09-10T01:00:03.901Z,15.53
2022-09-10T01:02:32.299Z,15.53
2022-09-10T01:05:04.130Z,15.36
2022-09-10T01:07:33.740Z,15.40
2022-09-10T01:10:05.271Z,15.23
2022-09-10T01:13:14.482Z,15.19
2022-09-10T01:15:48.908Z,15.19
2022-09-10T01:18:28.304Z,15.06
2022-09-10T01:21:03.408Z,15.14
2022-09-10T01:24:00.284Z,15.04
2022-09-10T01:26:41.992Z,15.03
2022-09-10T01:29:17.488Z,15.00
2022-09-10T01:31:51.111Z,15.12
2022-09-10T01:34:23.214Z,15.19
2022-09-10T01:36:53.227Z,15.15
2022-09-10T01:39:22.571Z,15.12
2022-09-10T01:41:51.317Z,15.02
2022-09-10T01:44:47.608Z,15.03
2022-09-10T01:47:28.836Z,15.05
2022-09-10T01:50:13.876Z,15.05
2022-09-10T01:52:49.666Z,15.15
2022-09-10T01:55:35.120Z,15.20
2022-09-10T01:58:09.932Z,15.21
2022-09-10T02:00:52.911Z,15.29
2022-09-10T02:03:23.922Z,15.34
2022-09-10T02:05:55.052Z,15.36
2022-09-10T02:08:26.319Z,15.51
2022-09-10T02:10:59.299Z,15.98
2022-09-10T02:13:32.062Z,16.06
2022-09-10T02:16:32.933Z,15.82
2022-09-10T02:19:02.724Z,15.68
2022-09-10T02:21:32.080Z,15.57
2022-09-10T02:24:06.028Z,15.37
2022-09-10T02:26:34.549Z,15.20
2022-09-10T02:29:03.230Z,15.24
2022-09-10T02:31:32.955Z,15.10
2022-09-10T02:34:03.245Z,15.28
2022-09-10T02:36:31.951Z,15.20
2022-09-10T02:39:00.435Z,15.09
2022-09-10T02:41:34.261Z,15.03
2022-09-10T02:44:04.849Z,14.96
2022-09-10T02:46:34.508Z,14.87
2022-09-10T02:49:03.200Z,15.11
2022-09-10T02:51:33.509Z,15.11
2022-09-10T02:54:01.818Z,15.11
2022-09-10T02:56:32.494Z,15.04
2022-09-10T02:59:00.746Z,14.95
2022-09-10T03:01:30.250Z,15.06
2022-09-10T03:04:05.853Z,15.67
2022-09-10T03:06:34.569Z,15.63
2022-09-10T03:09:02.834Z,15.66
2022-09-10T03:11:31.767Z,14.98
2022-09-10T03:14:00.432Z,14.72
2022-09-10T03:16:30.979Z,14.60
2022-09-10T03:18:59.282Z,14.60
2022-09-10T03:21:29.501Z,14.52
2022-09-10T03:23:59.095Z,14.70
2022-09-10T03:26:30.701Z,14.79
2022-09-10T03:28:59.319Z,14.63
2022-09-10T03:31:31.169Z,14.52
2022-09-10T03:33:59.832Z,14.50
2022-09-10T03:36:31.459Z,14.45
2022-09-10T03:39:00.470Z,14.41
2022-09-10T03:41:32.270Z,14.52
2022-09-10T03:44:01.343Z,14.52
2022-09-10T03:46:29.546Z,14.48
2022-09-10T03:49:02.453Z,14.47
2022-09-10T03:51:34.182Z,14.52
2022-09-10T03:54:03.112Z,14.52
2022-09-10T03:56:34.110Z,14.57
2022-09-10T03:59:02.375Z,14.55
2022-09-10T04:01:30.636Z,14.59
2022-09-10T04:03:58.937Z,14.56
2022-09-10T04:06:32.358Z,14.55
2022-09-10T04:09:02.468Z,14.59
2022-09-10T04:11:30.753Z,14.64
2022-09-10T04:14:00.217Z,14.77
2022-09-10T04:16:29.461Z,14.53
2022-09-10T04:18:57.908Z,14.36
2022-09-10T04:21:27.544Z,14.42
2022-09-10T04:23:59.352Z,14.27
2022-09-10T04:26:29.230Z,14.15
2022-09-10T04:28:57.569Z,14.23
2022-09-10T04:31:26.012Z,14.32
2022-09-10T04:34:02.187Z,14.52
2022-09-10T04:36:32.411Z,14.32
2022-09-10T04:39:00.715Z,14.17
2022-09-10T04:41:31.649Z,13.99
2022-09-10T04:43:59.994Z,13.87
2022-09-10T04:46:28.262Z,13.82
2022-09-10T04:49:00.380Z,13.82
2022-09-10T04:51:28.807Z,13.89
2022-09-10T04:53:59.467Z,13.86
2022-09-10T04:56:35.019Z,14.02
2022-09-10T04:59:03.243Z,14.05
2022-09-10T05:01:35.279Z,14.06
2022-09-10T05:04:04.081Z,14.05
2022-09-10T05:06:32.588Z,14.06
2022-09-10T05:09:00.809Z,14.09
2022-09-10T05:11:29.464Z,14.02
2022-09-10T05:13:59.052Z,14.10
2022-09-10T05:16:30.205Z,14.20
2022-09-10T05:18:59.274Z,14.26
2022-09-10T05:21:29.250Z,14.30
2022-09-10T05:23:57.501Z,14.32
2022-09-10T05:26:27.724Z,14.32
2022-09-10T05:28:59.855Z,14.44
2022-09-10T05:31:28.984Z,14.47
2022-09-10T05:33:59.430Z,14.51
2022-09-10T05:36:27.924Z,14.54
2022-09-10T05:38:56.939Z,14.60
2022-09-10T05:41:25.923Z,14.99
2022-09-10T05:43:56.305Z,15.11
2022-09-10T05:46:26.108Z,15.18
2022-09-10T05:48:58.888Z,15.24
2022-09-10T05:51:30.723Z,15.29
2022-09-10T05:54:03.632Z,15.20
2022-09-10T05:56:34.248Z,15.30
2022-09-10T05:59:04.056Z,15.08
2022-09-10T06:01:36.101Z,15.33
2022-09-10T06:04:07.670Z,15.28
2022-09-10T06:06:39.206Z,15.24
2022-09-10T06:09:10.300Z,15.26
2022-09-10T06:11:49.586Z,15.26
2022-09-10T06:14:20.332Z,15.29
2022-09-10T06:16:52.088Z,15.23
2022-09-10T06:19:21.124Z,15.26
2022-09-10T06:21:52.468Z,15.24
2022-09-10T06:24:23.739Z,15.41
2022-09-10T06:26:55.908Z,15.39
2022-09-10T06:29:25.926Z,15.44
2022-09-10T06:31:55.661Z,15.49
2022-09-10T06:34:23.964Z,15.61
2022-09-10T06:36:53.766Z,15.49
2022-09-10T06:39:22.216Z,15.56
2022-09-10T06:41:54.951Z,15.64
2022-09-10T06:44:41.969Z,15.56
2022-09-10T06:48:06.846Z,15.92
2022-09-10T06:50:12.509Z,15.94
2022-09-10T06:52:42.613Z,15.87
2022-09-10T06:55:13.890Z,15.93
2022-09-10T06:57:47.142Z,15.84
2022-09-10T07:00:18.051Z,16.01
2022-09-10T07:02:53.289Z,15.97
2022-09-10T07:05:22.777Z,16.26
2022-09-10T07:07:51.511Z,16.40
2022-09-10T07:10:20.153Z,16.37
2022-09-10T07:12:49.793Z,16.42
2022-09-10T07:15:19.434Z,16.51
2022-09-10T07:17:49.490Z,16.54
2022-09-10T07:20:20.424Z,16.62
2022-09-10T07:22:49.603Z,16.86
2022-09-10T07:25:21.186Z,16.80
2022-09-10T07:28:03.648Z,16.71
2022-09-10T07:30:36.060Z,16.85
2022-09-10T07:33:05.266Z,16.90
2022-09-10T07:35:37.685Z,16.95
2022-09-10T07:38:11.439Z,17.00
2022-09-10T07:40:41.646Z,17.18
2022-09-10T07:43:11.083Z,17.32
2022-09-10T07:45:41.936Z,17.44
2022-09-10T07:48:13.854Z,17.59
2022-09-10T07:50:45.476Z,17.74
2022-09-10T07:53:17.930Z,17.99
2022-09-10T07:55:47.640Z,18.42
2022-09-10T07:58:16.686Z,18.72
2022-09-10T08:00:47.487Z,19.04
2022-09-10T08:03:18.507Z,19.24
2022-09-10T08:05:50.600Z,19.56
2022-09-10T08:08:21.261Z,19.77
2022-09-10T08:10:50.017Z,20.08
2022-09-10T08:13:20.361Z,20.20
2022-09-10T08:15:48.945Z,20.58
2022-09-10T08:18:18.567Z,20.62
2022-09-10T08:20:56.658Z,20.60
2022-09-10T08:23:25.857Z,20.66
2022-09-10T08:25:55.233Z,20.60
2022-09-10T08:28:25.750Z,20.55
2022-09-10T08:31:00.674Z,20.47
2022-09-10T08:33:30.979Z,20.41
2022-09-10T08:36:02.159Z,20.36
2022-09-10T08:38:39.080Z,20.04
2022-09-10T08:41:13.969Z,19.83
2022-09-10T08:43:55.636Z,20.22
2022-09-10T08:46:29.739Z,20.62
2022-09-10T08:49:08.588Z,20.65
2022-09-10T08:51:43.245Z,20.86
2022-09-10T08:54:15.816Z,21.18
2022-09-10T08:56:44.100Z,21.47
2022-09-10T08:59:21.873Z,21.96
2022-09-10T09:01:53.099Z,21.73
2022-09-10T09:04:30.898Z,21.50
2022-09-10T09:07:04.251Z,21.40
2022-09-10T09:09:32.999Z,21.41
2022-09-10T09:12:05.930Z,21.31
2022-09-10T09:14:46.753Z,21.12
2022-09-10T09:17:51.840Z,21.32
2022-09-10T09:20:34.059Z,21.63
2022-09-10T09:23:15.083Z,22.05
2022-09-10T09:25:49.228Z,22.42
2022-09-10T09:28:26.108Z,22.55
2022-09-10T09:30:59.451Z,22.95
2022-09-10T09:33:30.956Z,22.74
2022-09-10T09:36:02.176Z,23.15
2022-09-10T09:38:37.374Z,23.29
2022-09-10T09:41:10.290Z,23.38
2022-09-10T09:43:52.579Z,23.13
2022-09-10T09:46:24.523Z,23.41
2022-09-10T09:48:59.569Z,23.77
2022-09-10T09:51:30.973Z,23.57
2022-09-10T09:54:39.427Z,23.68
2022-09-10T09:57:03.124Z,23.77
2022-09-10T09:59:34.983Z,24.43
2022-09-10T10:02:07.644Z,24.19
2022-09-10T10:04:42.213Z,24.44
2022-09-10T10:07:12.703Z,25.04
2022-09-10T10:09:47.675Z,24.49
2022-09-10T10:12:21.317Z,24.32
2022-09-10T10:14:50.016Z,24.70
2022-09-10T10:17:38.818Z,24.66
2022-09-10T10:20:10.200Z,25.07
2022-09-10T10:22:39.591Z,24.89
2022-09-10T10:25:40.512Z,24.34
2022-09-10T10:28:17.918Z,24.83
2022-09-10T10:30:58.280Z,25.46
2022-09-10T10:33:30.631Z,25.61
2022-09-10T10:36:06.947Z,25.65
2022-09-10T10:38:35.963Z,25.51
2022-09-10T10:41:33.678Z,25.30
2022-09-10T10:44:13.858Z,25.60
2022-09-10T10:46:49.456Z,25.61
2022-09-10T10:49:26.049Z,25.64
2022-09-10T10:52:00.671Z,26.14
2022-09-10T10:54:49.226Z,26.68
2022-09-10T10:57:27.959Z,27.34
2022-09-10T10:59:58.051Z,27.24
2022-09-10T11:02:35.031Z,27.51
2022-09-10T11:05:08.357Z,27.51
2022-09-10T11:07:40.880Z,27.49
2022-09-10T11:10:17.765Z,27.20
2022-09-10T11:12:51.775Z,26.83
2022-09-10T11:15:30.397Z,26.83
2022-09-10T11:18:04.751Z,27.27
2022-09-10T11:20:35.701Z,28.23
2022-09-10T11:23:09.353Z,27.94
2022-09-10T11:25:41.895Z,28.27
2022-09-10T11:28:15.915Z,28.39
2022-09-10T11:30:48.513Z,29.04
2022-09-10T11:33:18.973Z,29.26
2022-09-10T11:35:49.432Z,29.65
2022-09-10T11:38:23.305Z,29.43
2022-09-10T11:41:00.532Z,28.53
2022-09-10T11:43:37.324Z,27.88
2022-09-10T11:46:10.105Z,28.40
2022-09-10T11:48:43.004Z,28.06
2022-09-10T11:51:16.132Z,28.08
2022-09-10T11:53:45.390Z,28.57
2022-09-10T11:56:24.242Z,27.74
2022-09-10T11:59:05.050Z,27.81
2022-09-10T12:01:49.400Z,27.40
2022-09-10T12:04:32.029Z,27.21
2022-09-10T12:07:05.948Z,26.20
2022-09-10T12:09:40.879Z,26.46
2022-09-10T12:12:15.412Z,26.88
2022-09-10T12:14:45.107Z,26.98
2022-09-10T12:17:17.827Z,27.03
2022-09-10T12:19:50.502Z,26.55
2022-09-10T12:22:22.967Z,26.20
2022-09-10T12:24:54.737Z,25.47
2022-09-10T12:27:23.259Z,25.11
2022-09-10T12:29:54.118Z,25.28
2022-09-10T12:32:31.917Z,25.31
2022-09-10T12:35:34.359Z,24.85
2022-09-10T12:38:35.825Z,25.14
2022-09-10T12:41:05.998Z,25.47
2022-09-10T12:43:57.724Z,25.78
2022-09-10T12:46:28.078Z,26.26
2022-09-10T12:49:08.165Z,26.07
2022-09-10T12:51:46.476Z,25.26
2022-09-10T12:54:29.606Z,25.86
2022-09-10T12:57:13.330Z,26.18
2022-09-10T13:00:14.052Z,26.69
2022-09-10T13:02:49.191Z,26.46
2022-09-10T13:05:31.635Z,26.18
2022-09-10T13:08:09.055Z,25.50
2022-09-10T13:10:37.586Z,25.44
2022-09-10T13:13:08.030Z,24.88
2022-09-10T13:15:39.270Z,24.60
2022-09-10T13:18:31.125Z,24.71
2022-09-10T13:20:59.945Z,24.24
2022-09-10T13:23:47.820Z,23.08
2022-09-10T13:26:50.234Z,22.26
2022-09-10T13:29:29.841Z,22.25
2022-09-10T13:32:02.876Z,22.03
2022-09-10T13:34:52.338Z,21.87
2022-09-10T13:37:34.995Z,22.38
2022-09-10T13:40:32.595Z,22.35
2022-09-10T13:43:10.639Z,21.57
2022-09-10T13:45:41.544Z,21.71
2022-09-10T13:48:15.149Z,21.84
2022-09-10T13:50:51.157Z,21.27
2022-09-10T13:53:20.706Z,21.41
2022-09-10T13:56:03.219Z,21.38
2022-09-10T13:58:37.614Z,21.29
2022-09-10T14:01:10.114Z,21.29
2022-09-10T14:03:40.962Z,21.35
2022-09-10T14:06:18.017Z,21.04
2022-09-10T14:08:51.166Z,20.85
2022-09-10T14:11:24.003Z,20.73
2022-09-10T14:13:57.929Z,20.71
2022-09-10T14:16:33.474Z,20.63
2022-09-10T14:19:04.554Z,20.66
2022-09-10T14:21:34.931Z,20.34
2022-09-10T14:24:04.451Z,20.44
2022-09-10T14:26:34.920Z,20.37
2022-09-10T14:29:05.043Z,20.28
2022-09-10T14:31:36.914Z,20.18
2022-09-10T14:34:41.861Z,19.64
2022-09-10T14:40:17.606Z,19.76
2022-09-10T14:42:46.333Z,19.68
2022-09-10T14:45:41.118Z,19.47
2022-09-10T14:48:44.965Z,19.54
2022-09-10T14:51:17.702Z,19.42
2022-09-10T14:53:54.336Z,19.27
2022-09-10T14:56:41.826Z,19.38
2022-09-10T14:59:17.211Z,19.06
2022-09-10T15:01:48.373Z,18.72
2022-09-10T15:04:19.192Z,18.72
2022-09-10T15:06:48.276Z,18.64
2022-09-10T15:09:16.711Z,18.85
2022-09-10T15:11:53.602Z,18.86
2022-09-10T15:14:23.013Z,19.51
2022-09-10T15:16:52.307Z,19.48
2022-09-10T15:19:20.750Z,19.33
2022-09-10T15:21:53.800Z,19.13
2022-09-10T15:24:24.229Z,19.00
2022-09-10T15:26:54.075Z,19.23
2022-09-10T15:29:23.482Z,19.26
2022-09-10T15:31:52.537Z,19.26
2022-09-10T15:34:20.849Z,18.99
2022-09-10T15:36:49.197Z,19.01
2022-09-10T15:39:17.850Z,18.96
2022-09-10T15:41:47.438Z,19.00
2022-09-10T15:44:18.466Z,19.06
2022-09-10T15:46:49.952Z,19.10
2022-09-10T15:49:18.473Z,19.04
2022-09-10T15:51:46.945Z,19.22
2022-09-10T15:54:15.559Z,18.98
2022-09-10T15:56:44.686Z,19.18
2022-09-10T15:59:13.212Z,19.23
2022-09-10T16:01:43.682Z,19.27
2022-09-10T16:04:12.406Z,19.26
2022-09-10T16:06:43.041Z,19.28
2022-09-10T16:09:13.990Z,19.28
2022-09-10T16:11:45.475Z,19.23
2022-09-10T16:14:16.056Z,19.26
2022-09-10T16:16:46.006Z,19.29
2022-09-10T16:19:15.743Z,19.17
2022-09-10T16:21:45.879Z,19.27
2022-09-10T16:24:14.385Z,19.23
2022-09-10T16:26:45.507Z,19.20
2022-09-10T16:29:15.826Z,19.29
2022-09-10T16:31:46.325Z,19.50
2022-09-10T16:34:17.577Z,19.50
2022-09-10T16:36:48.932Z,19.59
2022-09-10T16:39:19.756Z,19.54
2022-09-10T16:41:49.905Z,19.53
2022-09-10T16:44:19.363Z,19.50
2022-09-10T16:46:49.967Z,19.40
2022-09-10T16:49:21.717Z,19.34
2022-09-10T16:51:51.469Z,19.37
2022-09-10T16:54:20.131Z,19.10
2022-09-10T16:56:49.310Z,19.36
2022-09-10T16:59:26.943Z,19.00
2022-09-10T17:01:59.634Z,18.76
2022-09-10T17:04:29.585Z,18.35
2022-09-10T17:06:58.569Z,18.14
2022-09-10T17:09:27.547Z,18.25
2022-09-10T17:11:55.935Z,18.29
2022-09-10T17:14:28.073Z,18.24
2022-09-10T17:17:00.122Z,18.05
2022-09-10T17:19:29.409Z,17.97
2022-09-10T17:21:58.446Z,17.75
2022-09-10T17:24:28.394Z,17.63
2022-09-10T17:26:57.387Z,17.56
2022-09-10T17:29:26.875Z,17.30
2022-09-10T17:31:57.527Z,17.24
2022-09-10T17:34:28.306Z,16.99
2022-09-10T17:36:56.617Z,16.96
2022-09-10T17:39:28.419Z,16.81
2022-09-10T17:41:56.956Z,16.67
2022-09-10T17:44:25.810Z,16.50
2022-09-10T17:46:55.223Z,16.42
2022-09-10T17:49:24.508Z,16.45
2022-09-10T17:51:54.598Z,16.38
2022-09-10T17:54:26.755Z,16.51
2022-09-10T17:56:55.401Z,16.37
2022-09-10T17:59:26.143Z,16.09
2022-09-10T18:01:54.490Z,15.98
2022-09-10T18:04:22.952Z,16.09
2022-09-10T18:06:52.626Z,15.85
2022-09-10T18:09:23.691Z,15.91
2022-09-10T18:11:52.458Z,15.91
2022-09-10T18:14:22.209Z,15.93
2022-09-10T18:16:51.735Z,15.88
2022-09-10T18:19:20.379Z,15.85
2022-09-10T18:21:51.844Z,15.74
2022-09-10T18:24:23.867Z,15.80
2022-09-10T18:26:54.419Z,15.73
2022-09-10T18:29:25.525Z,15.82
2022-09-10T18:31:56.035Z,15.77
2022-09-10T18:34:28.352Z,15.81
2022-09-10T18:36:58.339Z,15.85
2022-09-10T18:39:30.729Z,15.76
2022-09-10T18:42:01.340Z,15.83
2022-09-10T18:44:34.535Z,15.79
2022-09-10T18:47:06.155Z,15.70
2022-09-10T18:49:39.928Z,15.61
2022-09-10T18:52:09.652Z,15.61
2022-09-10T18:54:44.675Z,15.62
2022-09-10T18:57:23.949Z,15.54
2022-09-10T18:59:55.390Z,15.46
2022-09-10T19:02:25.061Z,15.37
2022-09-10T19:05:10.818Z,15.29
2022-09-10T19:07:40.824Z,15.27
2022-09-10T19:10:13.325Z,15.27
2022-09-10T19:12:41.836Z,15.16
2022-09-10T19:15:10.954Z,15.09
2022-09-10T19:17:40.039Z,15.00
2022-09-10T19:20:10.012Z,15.03
2022-09-10T19:22:39.419Z,14.92
2022-09-10T19:25:09.579Z,14.80
2022-09-10T19:27:39.751Z,14.77
2022-09-10T19:30:09.417Z,14.74
2022-09-10T19:32:37.993Z,14.65
2022-09-10T19:35:07.309Z,14.52
2022-09-10T19:37:36.019Z,14.47
2022-09-10T19:40:05.261Z,14.41
2022-09-10T19:42:33.811Z,14.38
2022-09-10T19:45:07.012Z,14.34
2022-09-10T19:47:38.733Z,14.28
2022-09-10T19:50:08.656Z,14.51
2022-09-10T19:52:38.115Z,14.49
2022-09-10T19:55:07.317Z,14.35
2022-09-10T19:57:35.830Z,14.22
2022-09-10T20:00:06.971Z,14.17
2022-09-10T20:02:40.054Z,14.20
2022-09-10T20:05:10.046Z,14.14
2022-09-10T20:07:38.856Z,14.09
2022-09-10T20:10:08.637Z,14.10
2022-09-10T20:12:37.028Z,14.04
2022-09-10T20:15:08.867Z,14.02
2022-09-10T20:17:37.580Z,13.91
2022-09-10T20:20:07.155Z,13.83
2022-09-10T20:22:38.662Z,13.75
2022-09-10T20:25:07.406Z,13.67
2022-09-10T20:27:36.669Z,13.73
2022-09-10T20:30:07.435Z,13.74
2022-09-10T20:32:35.871Z,13.77
2022-09-10T20:35:04.168Z,13.92
2022-09-10T20:37:32.867Z,13.87
2022-09-10T20:40:01.304Z,13.75
2022-09-10T20:42:29.695Z,13.70
2022-09-10T20:44:57.946Z,13.73
2022-09-10T20:47:31.299Z,13.70
2022-09-10T20:49:59.536Z,13.68
2022-09-10T20:52:28.225Z,13.71
2022-09-10T20:54:56.539Z,13.67
2022-09-10T20:57:24.955Z,13.57
2022-09-10T20:59:53.150Z,13.59
2022-09-10T21:02:22.893Z,13.45
2022-09-10T21:04:53.168Z,13.42
2022-09-10T21:07:21.543Z,13.38
2022-09-10T21:09:50.726Z,13.29
2022-09-10T21:12:19.335Z,13.16
2022-09-10T21:14:47.577Z,13.11
2022-09-10T21:17:16.327Z,13.12
2022-09-10T21:19:44.804Z,13.14
2022-09-10T21:22:14.531Z,13.12
2022-09-10T21:24:43.653Z,13.09
2022-09-10T21:27:11.878Z,13.08
2022-09-10T21:29:40.142Z,13.15
2022-09-10T21:32:08.424Z,13.04
2022-09-10T21:34:36.972Z,13.00
2022-09-10T21:37:05.397Z,12.99
2022-09-10T21:39:35.211Z,12.98
2022-09-10T21:42:04.385Z,12.90
2022-09-10T21:44:33.066Z,12.84
2022-09-10T21:47:01.272Z,12.86
2022-09-10T21:49:29.640Z,12.92
2022-09-10T21:51:57.958Z,12.66
2022-09-10T21:54:26.457Z,12.81
2022-09-10T21:56:56.848Z,12.75
2022-09-10T21:59:26.833Z,12.73
2022-09-10T22:01:55.704Z,12.73
2022-09-10T22:04:24.115Z,12.78
2022-09-10T22:06:54.044Z,12.78
2022-09-10T22:09:22.460Z,12.73
2022-09-10T22:11:52.152Z,12.81
2022-09-10T22:14:23.106Z,12.83
2022-09-10T22:16:52.119Z,12.87
2022-09-10T22:19:22.442Z,12.90
2022-09-10T22:21:51.193Z,12.82
2022-09-10T22:24:19.495Z,12.71
2022-09-10T22:26:48.487Z,12.66
2022-09-10T22:29:18.555Z,12.67
2022-09-10T22:31:49.639Z,12.56
2022-09-10T22:34:18.899Z,12.30
2022-09-10T22:36:48.505Z,12.43
2022-09-10T22:39:18.877Z,12.05
2022-09-10T22:41:47.865Z,12.42
2022-09-10T22:44:17.804Z,12.48
2022-09-10T22:46:46.279Z,12.48
2022-09-10T22:49:17.083Z,12.46
2022-09-10T22:51:45.908Z,12.49
2022-09-10T22:54:14.323Z,12.54
2022-09-10T22:56:44.593Z,12.42
2022-09-10T22:59:14.053Z,12.16
2022-09-10T23:01:46.082Z,12.14
2022-09-10T23:04:16.394Z,12.15
2022-09-10T23:06:44.672Z,11.85
2022-09-10T23:09:14.965Z,12.30
2022-09-10T23:11:45.320Z,12.39
2022-09-10T23:14:15.614Z,12.45
2022-09-10T23:16:46.740Z,12.33
2022-09-10T23:19:18.755Z,12.32
2022-09-10T23:21:48.870Z,12.06
2022-09-10T23:24:18.925Z,12.74
2022-09-10T23:26:47.847Z,12.88
2022-09-10T23:29:17.112Z,12.81
2022-09-10T23:31:47.626Z,12.65
2022-09-10T23:34:18.656Z,12.54
2022-09-10T23:36:48.498Z,12.40
2022-09-10T23:39:18.133Z,12.28
2022-09-10T23:41:47.163Z,12.26
2022-09-10T23:44:15.341Z,12.31
2022-09-10T23:46:44.719Z,12.32
2022-09-10T23:49:13.394Z,12.22
2022-09-10T23:51:43.233Z,12.24
2022-09-10T23:54:12.328Z,12.15
2022-09-10T23:56:40.841Z,12.08
2022-09-10T23:59:09.415Z,11.97
